sensor_id;sensor_type;location;lat;lon;timestamp;P1;durP1;ratioP1;P2;durP2;ratioP2
9150;SDS011;4610;50.006;7.490;2022-12-18T00:02:06;12.30;;;6.03;;
9150;SDS011;4610;50.006;7.490;2022-12-18T00:04:33;16.70;;;6.43;;
9150;SDS011;4610;50.006;7.490;2022-12-18T00:07:00;16.02;;;6.30;;
9150;SDS011;4610;50.006;7.490;2022-12-18T00:09:27;16.77;;;7.10;;
9150;SDS011;4610;50.006;7.490;2022-12-18T00:11:55;12.48;;;5.65;;
9150;SDS011;4610;50.006;7.490;2022-12-18T00:14:22;13.82;;;6.65;;
9150;SDS011;4610;50.006;7.490;2022-12-18T00:16:49;11.75;;;5.68;;
9150;SDS011;4610;50.006;7.490;2022-12-18T00:19:17;11.52;;;6.85;;
9150;SDS011;4610;50.006;7.490;2022-12-18T00:21:44;13.65;;;7.93;;
9150;SDS011;4610;50.006;7.490;2022-12-18T00:24:12;21.35;;;9.20;;
9150;SDS011;4610;50.006;7.490;2022-12-18T00:26:39;15.80;;;8.45;;
9150;SDS011;4610;50.006;7.490;2022-12-18T00:29:06;17.45;;;7.95;;
9150;SDS011;4610;50.006;7.490;2022-12-18T00:31:34;15.13;;;7.28;;
9150;SDS011;4610;50.006;7.490;2022-12-18T00:34:01;12.13;;;6.05;;
9150;SDS011;4610;50.006;7.490;2022-12-18T00:36:31;9.23;;;5.45;;
9150;SDS011;4610;50.006;7.490;2022-12-18T00:38:58;8.90;;;4.50;;
9150;SDS011;4610;50.006;7.490;2022-12-18T00:41:26;13.68;;;6.07;;
9150;SDS011;4610;50.006;7.490;2022-12-18T00:44:12;13.77;;;6.75;;
9150;SDS011;4610;50.006;7.490;2022-12-18T00:46:40;18.48;;;7.30;;
9150;SDS011;4610;50.006;7.490;2022-12-18T00:49:07;14.18;;;7.32;;
9150;SDS011;4610;50.006;7.490;2022-12-18T00:51:35;10.43;;;6.60;;
9150;SDS011;4610;50.006;7.490;2022-12-18T00:54:02;13.50;;;6.47;;
9150;SDS011;4610;50.006;7.490;2022-12-18T00:56:30;16.08;;;7.25;;
9150;SDS011;4610;50.006;7.490;2022-12-18T00:58:57;20.15;;;6.75;;
9150;SDS011;4610;50.006;7.490;2022-12-18T01:01:24;14.95;;;6.93;;
9150;SDS011;4610;50.006;7.490;2022-12-18T01:03:51;14.27;;;6.80;;
9150;SDS011;4610;50.006;7.490;2022-12-18T01:06:18;13.00;;;6.38;;
9150;SDS011;4610;50.006;7.490;2022-12-18T01:08:47;17.08;;;7.20;;
9150;SDS011;4610;50.006;7.490;2022-12-18T01:11:15;15.57;;;7.07;;
9150;SDS011;4610;50.006;7.490;2022-12-18T01:13:42;10.43;;;5.65;;
9150;SDS011;4610;50.006;7.490;2022-12-18T01:16:11;20.08;;;5.68;;
9150;SDS011;4610;50.006;7.490;2022-12-18T01:18:38;10.73;;;6.25;;
9150;SDS011;4610;50.006;7.490;2022-12-18T01:21:06;15.52;;;6.50;;
9150;SDS011;4610;50.006;7.490;2022-12-18T01:23:33;12.98;;;6.63;;
9150;SDS011;4610;50.006;7.490;2022-12-18T01:26:05;11.15;;;6.07;;
9150;SDS011;4610;50.006;7.490;2022-12-18T01:28:32;17.02;;;6.35;;
9150;SDS011;4610;50.006;7.490;2022-12-18T01:31:09;8.13;;;4.95;;
9150;SDS011;4610;50.006;7.490;2022-12-18T01:33:36;11.48;;;5.05;;
9150;SDS011;4610;50.006;7.490;2022-12-18T01:36:04;9.77;;;4.32;;
9150;SDS011;4610;50.006;7.490;2022-12-18T01:38:31;7.70;;;4.53;;
9150;SDS011;4610;50.006;7.490;2022-12-18T01:40:58;13.10;;;5.03;;
9150;SDS011;4610;50.006;7.490;2022-12-18T01:46:10;5.72;;;4.05;;
9150;SDS011;4610;50.006;7.490;2022-12-18T01:48:37;10.80;;;4.53;;
9150;SDS011;4610;50.006;7.490;2022-12-18T01:51:09;6.32;;;4.32;;
9150;SDS011;4610;50.006;7.490;2022-12-18T01:53:37;9.18;;;4.10;;
9150;SDS011;4610;50.006;7.490;2022-12-18T01:56:06;9.70;;;3.83;;
9150;SDS011;4610;50.006;7.490;2022-12-18T01:58:35;7.68;;;4.13;;
9150;SDS011;4610;50.006;7.490;2022-12-18T02:01:04;12.07;;;4.50;;
9150;SDS011;4610;50.006;7.490;2022-12-18T02:03:32;13.68;;;6.38;;
9150;SDS011;4610;50.006;7.490;2022-12-18T02:06:00;15.55;;;6.47;;
9150;SDS011;4610;50.006;7.490;2022-12-18T02:08:33;11.95;;;7.15;;
9150;SDS011;4610;50.006;7.490;2022-12-18T02:11:04;26.13;;;12.13;;
9150;SDS011;4610;50.006;7.490;2022-12-18T02:13:36;29.88;;;7.80;;
9150;SDS011;4610;50.006;7.490;2022-12-18T02:16:06;22.25;;;11.60;;
9150;SDS011;4610;50.006;7.490;2022-12-18T02:18:40;20.10;;;10.32;;
9150;SDS011;4610;50.006;7.490;2022-12-18T02:21:10;22.90;;;9.48;;
9150;SDS011;4610;50.006;7.490;2022-12-18T02:23:47;23.60;;;8.40;;
9150;SDS011;4610;50.006;7.490;2022-12-18T02:26:19;15.30;;;7.18;;
9150;SDS011;4610;50.006;7.490;2022-12-18T02:28:49;14.70;;;7.53;;
9150;SDS011;4610;50.006;7.490;2022-12-18T02:31:22;15.50;;;7.55;;
9150;SDS011;4610;50.006;7.490;2022-12-18T02:33:51;11.18;;;5.80;;
9150;SDS011;4610;50.006;7.490;2022-12-18T02:36:23;12.65;;;6.35;;
9150;SDS011;4610;50.006;7.490;2022-12-18T02:38:50;12.48;;;6.28;;
9150;SDS011;4610;50.006;7.490;2022-12-18T02:41:26;15.40;;;6.10;;
9150;SDS011;4610;50.006;7.490;2022-12-18T02:43:55;14.98;;;5.82;;
9150;SDS011;4610;50.006;7.490;2022-12-18T02:46:25;10.18;;;5.97;;
9150;SDS011;4610;50.006;7.490;2022-12-18T02:48:54;13.05;;;6.78;;
9150;SDS011;4610;50.006;7.490;2022-12-18T02:51:26;11.98;;;5.75;;
9150;SDS011;4610;50.006;7.490;2022-12-18T02:53:57;12.13;;;5.97;;
9150;SDS011;4610;50.006;7.490;2022-12-18T02:56:28;11.75;;;6.25;;
9150;SDS011;4610;50.006;7.490;2022-12-18T02:58:58;10.38;;;5.38;;
9150;SDS011;4610;50.006;7.490;2022-12-18T03:01:28;9.32;;;4.65;;
9150;SDS011;4610;50.006;7.490;2022-12-18T03:03:59;7.55;;;4.43;;
9150;SDS011;4610;50.006;7.490;2022-12-18T03:06:28;8.35;;;5.10;;
9150;SDS011;4610;50.006;7.490;2022-12-18T03:08:56;8.88;;;4.78;;
9150;SDS011;4610;50.006;7.490;2022-12-18T03:11:24;8.95;;;4.85;;
9150;SDS011;4610;50.006;7.490;2022-12-18T03:14:08;7.90;;;4.18;;
9150;SDS011;4610;50.006;7.490;2022-12-18T03:16:37;6.85;;;4.07;;
9150;SDS011;4610;50.006;7.490;2022-12-18T03:19:06;7.53;;;4.45;;
9150;SDS011;4610;50.006;7.490;2022-12-18T03:21:36;10.20;;;5.38;;
9150;SDS011;4610;50.006;7.490;2022-12-18T03:24:04;7.70;;;4.78;;
9150;SDS011;4610;50.006;7.490;2022-12-18T03:26:33;7.65;;;5.32;;
9150;SDS011;4610;50.006;7.490;2022-12-18T03:29:02;9.60;;;5.22;;
9150;SDS011;4610;50.006;7.490;2022-12-18T03:31:40;8.52;;;5.10;;
9150;SDS011;4610;50.006;7.490;2022-12-18T03:34:09;9.40;;;5.53;;
9150;SDS011;4610;50.006;7.490;2022-12-18T03:36:38;10.75;;;5.35;;
9150;SDS011;4610;50.006;7.490;2022-12-18T03:39:05;10.68;;;5.38;;
9150;SDS011;4610;50.006;7.490;2022-12-18T03:41:33;8.30;;;4.40;;
9150;SDS011;4610;50.006;7.490;2022-12-18T03:44:02;10.88;;;5.65;;
9150;SDS011;4610;50.006;7.490;2022-12-18T03:46:35;7.78;;;4.65;;
9150;SDS011;4610;50.006;7.490;2022-12-18T03:49:06;9.88;;;4.15;;
9150;SDS011;4610;50.006;7.490;2022-12-18T03:51:37;11.93;;;4.28;;
9150;SDS011;4610;50.006;7.490;2022-12-18T03:54:06;11.00;;;5.20;;
9150;SDS011;4610;50.006;7.490;2022-12-18T03:56:35;12.30;;;5.93;;
9150;SDS011;4610;50.006;7.490;2022-12-18T03:59:03;11.93;;;5.22;;
9150;SDS011;4610;50.006;7.490;2022-12-18T04:01:33;11.77;;;5.90;;
9150;SDS011;4610;50.006;7.490;2022-12-18T04:04:01;14.20;;;7.50;;
9150;SDS011;4610;50.006;7.490;2022-12-18T04:06:29;12.95;;;7.25;;
9150;SDS011;4610;50.006;7.490;2022-12-18T04:08:57;12.82;;;6.97;;
9150;SDS011;4610;50.006;7.490;2022-12-18T04:11:24;14.52;;;8.13;;
9150;SDS011;4610;50.006;7.490;2022-12-18T04:13:52;12.32;;;7.25;;
9150;SDS011;4610;50.006;7.490;2022-12-18T04:16:22;13.25;;;6.75;;
9150;SDS011;4610;50.006;7.490;2022-12-18T04:18:50;30.48;;;14.13;;
9150;SDS011;4610;50.006;7.490;2022-12-18T04:21:18;13.80;;;6.85;;
9150;SDS011;4610;50.006;7.490;2022-12-18T04:23:45;15.65;;;7.32;;
9150;SDS011;4610;50.006;7.490;2022-12-18T04:26:12;18.58;;;7.03;;
9150;SDS011;4610;50.006;7.490;2022-12-18T04:28:39;12.13;;;6.95;;
9150;SDS011;4610;50.006;7.490;2022-12-18T04:31:07;18.27;;;7.95;;
9150;SDS011;4610;50.006;7.490;2022-12-18T04:33:34;15.25;;;7.15;;
9150;SDS011;4610;50.006;7.490;2022-12-18T04:36:02;17.50;;;9.10;;
9150;SDS011;4610;50.006;7.490;2022-12-18T04:38:30;14.48;;;7.07;;
9150;SDS011;4610;50.006;7.490;2022-12-18T04:40:57;16.90;;;8.05;;
9150;SDS011;4610;50.006;7.490;2022-12-18T04:43:24;14.80;;;8.38;;
9150;SDS011;4610;50.006;7.490;2022-12-18T04:45:52;15.25;;;5.93;;
9150;SDS011;4610;50.006;7.490;2022-12-18T04:48:19;11.18;;;5.55;;
9150;SDS011;4610;50.006;7.490;2022-12-18T04:50:46;13.60;;;6.30;;
9150;SDS011;4610;50.006;7.490;2022-12-18T04:53:16;14.57;;;7.35;;
9150;SDS011;4610;50.006;7.490;2022-12-18T04:55:43;19.90;;;10.40;;
9150;SDS011;4610;50.006;7.490;2022-12-18T04:58:10;16.63;;;7.78;;
9150;SDS011;4610;50.006;7.490;2022-12-18T05:00:37;19.48;;;7.97;;
9150;SDS011;4610;50.006;7.490;2022-12-18T05:03:04;15.10;;;7.50;;
9150;SDS011;4610;50.006;7.490;2022-12-18T05:05:33;18.85;;;8.65;;
9150;SDS011;4610;50.006;7.490;2022-12-18T05:08:01;17.25;;;7.68;;
9150;SDS011;4610;50.006;7.490;2022-12-18T05:10:29;14.35;;;7.53;;
9150;SDS011;4610;50.006;7.490;2022-12-18T05:12:56;19.20;;;8.55;;
9150;SDS011;4610;50.006;7.490;2022-12-18T05:15:27;13.05;;;6.65;;
9150;SDS011;4610;50.006;7.490;2022-12-18T05:17:55;16.83;;;8.40;;
9150;SDS011;4610;50.006;7.490;2022-12-18T05:20:22;18.65;;;8.93;;
9150;SDS011;4610;50.006;7.490;2022-12-18T05:22:49;13.43;;;7.82;;
9150;SDS011;4610;50.006;7.490;2022-12-18T05:25:17;23.30;;;9.45;;
9150;SDS011;4610;50.006;7.490;2022-12-18T05:27:45;19.38;;;8.52;;
9150;SDS011;4610;50.006;7.490;2022-12-18T05:30:13;32.20;;;15.48;;
9150;SDS011;4610;50.006;7.490;2022-12-18T05:32:40;14.95;;;7.68;;
9150;SDS011;4610;50.006;7.490;2022-12-18T05:35:08;19.23;;;8.45;;
9150;SDS011;4610;50.006;7.490;2022-12-18T05:37:35;16.63;;;7.25;;
9150;SDS011;4610;50.006;7.490;2022-12-18T05:40:04;15.77;;;7.55;;
9150;SDS011;4610;50.006;7.490;2022-12-18T05:42:31;11.32;;;6.93;;
9150;SDS011;4610;50.006;7.490;2022-12-18T05:44:59;17.77;;;8.73;;
9150;SDS011;4610;50.006;7.490;2022-12-18T05:47:28;19.55;;;9.15;;
9150;SDS011;4610;50.006;7.490;2022-12-18T05:49:55;14.15;;;7.63;;
9150;SDS011;4610;50.006;7.490;2022-12-18T05:52:22;14.18;;;6.18;;
9150;SDS011;4610;50.006;7.490;2022-12-18T05:54:50;14.50;;;7.05;;
9150;SDS011;4610;50.006;7.490;2022-12-18T05:57:17;43.25;;;13.82;;
9150;SDS011;4610;50.006;7.490;2022-12-18T05:59:44;26.55;;;12.02;;
9150;SDS011;4610;50.006;7.490;2022-12-18T06:02:12;24.48;;;10.15;;
9150;SDS011;4610;50.006;7.490;2022-12-18T06:04:40;20.48;;;9.80;;
9150;SDS011;4610;50.006;7.490;2022-12-18T06:07:07;18.92;;;8.82;;
9150;SDS011;4610;50.006;7.490;2022-12-18T06:09:34;13.98;;;7.07;;
9150;SDS011;4610;50.006;7.490;2022-12-18T06:12:01;14.55;;;7.38;;
9150;SDS011;4610;50.006;7.490;2022-12-18T06:14:28;12.73;;;7.30;;
9150;SDS011;4610;50.006;7.490;2022-12-18T06:16:55;14.40;;;6.57;;
9150;SDS011;4610;50.006;7.490;2022-12-18T06:19:24;71.45;;;35.67;;
9150;SDS011;4610;50.006;7.490;2022-12-18T06:21:51;13.05;;;7.47;;
9150;SDS011;4610;50.006;7.490;2022-12-18T06:24:18;15.00;;;7.95;;
9150;SDS011;4610;50.006;7.490;2022-12-18T06:26:45;13.93;;;7.22;;
9150;SDS011;4610;50.006;7.490;2022-12-18T06:29:12;20.05;;;9.77;;
9150;SDS011;4610;50.006;7.490;2022-12-18T06:31:39;16.38;;;8.85;;
9150;SDS011;4610;50.006;7.490;2022-12-18T06:34:06;18.20;;;8.40;;
9150;SDS011;4610;50.006;7.490;2022-12-18T06:36:34;19.52;;;8.77;;
9150;SDS011;4610;50.006;7.490;2022-12-18T06:39:02;18.42;;;9.82;;
9150;SDS011;4610;50.006;7.490;2022-12-18T06:41:29;18.52;;;9.80;;
9150;SDS011;4610;50.006;7.490;2022-12-18T06:43:57;19.58;;;10.18;;
9150;SDS011;4610;50.006;7.490;2022-12-18T06:46:24;18.95;;;9.77;;
9150;SDS011;4610;50.006;7.490;2022-12-18T06:48:51;21.50;;;10.35;;
9150;SDS011;4610;50.006;7.490;2022-12-18T06:51:18;22.15;;;9.93;;
9150;SDS011;4610;50.006;7.490;2022-12-18T06:53:48;21.05;;;10.55;;
9150;SDS011;4610;50.006;7.490;2022-12-18T06:56:15;21.90;;;10.63;;
9150;SDS011;4610;50.006;7.490;2022-12-18T06:58:42;18.43;;;9.53;;
9150;SDS011;4610;50.006;7.490;2022-12-18T07:01:10;18.33;;;9.82;;
9150;SDS011;4610;50.006;7.490;2022-12-18T07:03:37;20.63;;;9.13;;
9150;SDS011;4610;50.006;7.490;2022-12-18T07:06:05;21.77;;;10.75;;
9150;SDS011;4610;50.006;7.490;2022-12-18T07:08:33;21.55;;;10.50;;
9150;SDS011;4610;50.006;7.490;2022-12-18T07:11:04;27.10;;;10.77;;
9150;SDS011;4610;50.006;7.490;2022-12-18T07:13:31;19.63;;;9.40;;
9150;SDS011;4610;50.006;7.490;2022-12-18T07:16:03;20.50;;;10.52;;
9150;SDS011;4610;50.006;7.490;2022-12-18T07:18:31;20.08;;;9.60;;
9150;SDS011;4610;50.006;7.490;2022-12-18T07:20:59;17.10;;;9.02;;
9150;SDS011;4610;50.006;7.490;2022-12-18T07:23:28;20.15;;;9.60;;
9150;SDS011;4610;50.006;7.490;2022-12-18T07:26:00;23.95;;;12.45;;
9150;SDS011;4610;50.006;7.490;2022-12-18T07:28:30;24.05;;;12.98;;
9150;SDS011;4610;50.006;7.490;2022-12-18T07:30:57;26.35;;;11.93;;
9150;SDS011;4610;50.006;7.490;2022-12-18T07:33:24;29.08;;;13.98;;
9150;SDS011;4610;50.006;7.490;2022-12-18T07:35:52;29.98;;;13.55;;
9150;SDS011;4610;50.006;7.490;2022-12-18T07:38:19;24.33;;;11.77;;
9150;SDS011;4610;50.006;7.490;2022-12-18T07:40:46;22.92;;;10.85;;
9150;SDS011;4610;50.006;7.490;2022-12-18T07:43:13;21.75;;;11.85;;
9150;SDS011;4610;50.006;7.490;2022-12-18T07:45:41;17.08;;;9.07;;
9150;SDS011;4610;50.006;7.490;2022-12-18T07:48:09;21.17;;;10.70;;
9150;SDS011;4610;50.006;7.490;2022-12-18T07:50:36;18.30;;;10.27;;
9150;SDS011;4610;50.006;7.490;2022-12-18T07:53:03;22.95;;;10.98;;
9150;SDS011;4610;50.006;7.490;2022-12-18T07:55:31;20.92;;;9.73;;
9150;SDS011;4610;50.006;7.490;2022-12-18T07:58:00;25.15;;;10.70;;
9150;SDS011;4610;50.006;7.490;2022-12-18T08:00:27;23.23;;;11.35;;
9150;SDS011;4610;50.006;7.490;2022-12-18T08:02:56;23.67;;;11.18;;
9150;SDS011;4610;50.006;7.490;2022-12-18T08:05:23;19.02;;;9.75;;
9150;SDS011;4610;50.006;7.490;2022-12-18T08:07:50;24.63;;;12.43;;
9150;SDS011;4610;50.006;7.490;2022-12-18T08:10:17;25.63;;;13.15;;
9150;SDS011;4610;50.006;7.490;2022-12-18T08:12:45;27.30;;;12.30;;
9150;SDS011;4610;50.006;7.490;2022-12-18T08:15:12;27.38;;;12.90;;
9150;SDS011;4610;50.006;7.490;2022-12-18T08:17:40;25.55;;;12.80;;
9150;SDS011;4610;50.006;7.490;2022-12-18T08:20:09;28.07;;;13.03;;
9150;SDS011;4610;50.006;7.490;2022-12-18T08:22:39;21.27;;;12.60;;
9150;SDS011;4610;50.006;7.490;2022-12-18T08:25:07;22.67;;;12.20;;
9150;SDS011;4610;50.006;7.490;2022-12-18T08:27:34;24.83;;;13.00;;
9150;SDS011;4610;50.006;7.490;2022-12-18T08:30:01;25.10;;;11.17;;
9150;SDS011;4610;50.006;7.490;2022-12-18T08:32:29;21.27;;;10.90;;
9150;SDS011;4610;50.006;7.490;2022-12-18T08:34:57;24.73;;;10.43;;
9150;SDS011;4610;50.006;7.490;2022-12-18T08:37:26;22.53;;;10.80;;
9150;SDS011;4610;50.006;7.490;2022-12-18T08:39:53;22.40;;;11.30;;
9150;SDS011;4610;50.006;7.490;2022-12-18T08:42:20;26.10;;;11.87;;
9150;SDS011;4610;50.006;7.490;2022-12-18T08:45:05;26.60;;;11.47;;
9150;SDS011;4610;50.006;7.490;2022-12-18T08:47:33;18.77;;;11.07;;
9150;SDS011;4610;50.006;7.490;2022-12-18T08:50:00;31.10;;;12.67;;
9150;SDS011;4610;50.006;7.490;2022-12-18T08:52:28;25.27;;;12.20;;
9150;SDS011;4610;50.006;7.490;2022-12-18T08:54:55;23.13;;;11.60;;
9150;SDS011;4610;50.006;7.490;2022-12-18T08:57:23;23.83;;;11.50;;
9150;SDS011;4610;50.006;7.490;2022-12-18T08:59:50;24.77;;;11.03;;
9150;SDS011;4610;50.006;7.490;2022-12-18T09:02:16;19.83;;;10.57;;
9150;SDS011;4610;50.006;7.490;2022-12-18T09:04:46;21.13;;;10.13;;
9150;SDS011;4610;50.006;7.490;2022-12-18T09:07:13;23.97;;;11.17;;
9150;SDS011;4610;50.006;7.490;2022-12-18T09:09:42;22.40;;;10.57;;
9150;SDS011;4610;50.006;7.490;2022-12-18T09:12:09;21.97;;;11.07;;
9150;SDS011;4610;50.006;7.490;2022-12-18T09:14:36;20.70;;;11.03;;
9150;SDS011;4610;50.006;7.490;2022-12-18T09:17:03;22.30;;;11.73;;
9150;SDS011;4610;50.006;7.490;2022-12-18T09:19:30;22.93;;;12.13;;
9150;SDS011;4610;50.006;7.490;2022-12-18T09:21:57;21.50;;;11.20;;
9150;SDS011;4610;50.006;7.490;2022-12-18T09:24:24;18.97;;;8.90;;
9150;SDS011;4610;50.006;7.490;2022-12-18T09:26:54;22.77;;;10.13;;
9150;SDS011;4610;50.006;7.490;2022-12-18T09:29:21;20.07;;;9.47;;
9150;SDS011;4610;50.006;7.490;2022-12-18T09:31:48;18.30;;;9.00;;
9150;SDS011;4610;50.006;7.490;2022-12-18T09:34:15;19.27;;;9.97;;
9150;SDS011;4610;50.006;7.490;2022-12-18T09:36:42;22.60;;;10.57;;
9150;SDS011;4610;50.006;7.490;2022-12-18T09:39:09;19.03;;;9.20;;
9150;SDS011;4610;50.006;7.490;2022-12-18T09:41:39;18.23;;;10.03;;
9150;SDS011;4610;50.006;7.490;2022-12-18T09:44:11;18.27;;;10.10;;
9150;SDS011;4610;50.006;7.490;2022-12-18T09:46:44;18.53;;;11.07;;
9150;SDS011;4610;50.006;7.490;2022-12-18T09:49:13;19.93;;;9.93;;
9150;SDS011;4610;50.006;7.490;2022-12-18T09:51:42;19.93;;;9.17;;
9150;SDS011;4610;50.006;7.490;2022-12-18T09:54:11;20.20;;;9.27;;
9150;SDS011;4610;50.006;7.490;2022-12-18T09:56:40;17.97;;;9.83;;
9150;SDS011;4610;50.006;7.490;2022-12-18T09:59:16;24.20;;;10.77;;
9150;SDS011;4610;50.006;7.490;2022-12-18T10:01:47;18.03;;;9.87;;
9150;SDS011;4610;50.006;7.490;2022-12-18T10:04:14;16.20;;;9.03;;
9150;SDS011;4610;50.006;7.490;2022-12-18T10:06:42;17.83;;;9.93;;
9150;SDS011;4610;50.006;7.490;2022-12-18T10:09:17;20.17;;;9.67;;
9150;SDS011;4610;50.006;7.490;2022-12-18T10:11:53;18.83;;;10.27;;
9150;SDS011;4610;50.006;7.490;2022-12-18T10:14:26;22.40;;;10.23;;
9150;SDS011;4610;50.006;7.490;2022-12-18T10:16:58;21.10;;;9.80;;
9150;SDS011;4610;50.006;7.490;2022-12-18T10:19:33;20.27;;;9.47;;
9150;SDS011;4610;50.006;7.490;2022-12-18T10:22:22;18.57;;;9.80;;
9150;SDS011;4610;50.006;7.490;2022-12-18T10:24:59;20.57;;;10.50;;
9150;SDS011;4610;50.006;7.490;2022-12-18T10:27:30;18.13;;;9.93;;
9150;SDS011;4610;50.006;7.490;2022-12-18T10:29:58;20.73;;;10.83;;
9150;SDS011;4610;50.006;7.490;2022-12-18T10:32:30;19.63;;;11.07;;
9150;SDS011;4610;50.006;7.490;2022-12-18T10:34:57;23.70;;;10.80;;
9150;SDS011;4610;50.006;7.490;2022-12-18T10:37:25;18.90;;;10.00;;
9150;SDS011;4610;50.006;7.490;2022-12-18T10:40:06;22.60;;;11.00;;
9150;SDS011;4610;50.006;7.490;2022-12-18T10:42:36;22.80;;;10.63;;
9150;SDS011;4610;50.006;7.490;2022-12-18T10:45:07;23.37;;;11.73;;
9150;SDS011;4610;50.006;7.490;2022-12-18T10:47:35;23.77;;;12.43;;
9150;SDS011;4610;50.006;7.490;2022-12-18T10:50:11;15.57;;;8.67;;
9150;SDS011;4610;50.006;7.490;2022-12-18T10:52:52;24.47;;;11.87;;
9150;SDS011;4610;50.006;7.490;2022-12-18T10:55:21;26.87;;;11.23;;
9150;SDS011;4610;50.006;7.490;2022-12-18T10:57:48;27.43;;;13.13;;
9150;SDS011;4610;50.006;7.490;2022-12-18T11:00:22;22.47;;;11.17;;
9150;SDS011;4610;50.006;7.490;2022-12-18T11:02:50;23.27;;;11.27;;
9150;SDS011;4610;50.006;7.490;2022-12-18T11:05:25;26.03;;;11.43;;
9150;SDS011;4610;50.006;7.490;2022-12-18T11:07:54;24.57;;;11.67;;
9150;SDS011;4610;50.006;7.490;2022-12-18T11:10:22;28.43;;;12.60;;
9150;SDS011;4610;50.006;7.490;2022-12-18T11:12:54;22.17;;;11.63;;
9150;SDS011;4610;50.006;7.490;2022-12-18T11:15:23;27.90;;;13.17;;
9150;SDS011;4610;50.006;7.490;2022-12-18T11:17:55;27.70;;;11.57;;
9150;SDS011;4610;50.006;7.490;2022-12-18T11:20:30;21.10;;;11.60;;
9150;SDS011;4610;50.006;7.490;2022-12-18T11:22:59;21.40;;;11.63;;
9150;SDS011;4610;50.006;7.490;2022-12-18T11:25:30;22.40;;;10.57;;
9150;SDS011;4610;50.006;7.490;2022-12-18T11:27:58;24.67;;;11.67;;
9150;SDS011;4610;50.006;7.490;2022-12-18T11:30:29;24.60;;;11.57;;
9150;SDS011;4610;50.006;7.490;2022-12-18T11:32:59;22.27;;;11.53;;
9150;SDS011;4610;50.006;7.490;2022-12-18T11:35:35;26.97;;;12.03;;
9150;SDS011;4610;50.006;7.490;2022-12-18T11:38:11;25.33;;;11.67;;
9150;SDS011;4610;50.006;7.490;2022-12-18T11:40:43;22.53;;;10.07;;
9150;SDS011;4610;50.006;7.490;2022-12-18T11:43:16;24.07;;;11.67;;
9150;SDS011;4610;50.006;7.490;2022-12-18T11:45:51;27.30;;;12.07;;
9150;SDS011;4610;50.006;7.490;2022-12-18T11:48:21;24.20;;;10.90;;
9150;SDS011;4610;50.006;7.490;2022-12-18T11:50:52;22.93;;;11.37;;
9150;SDS011;4610;50.006;7.490;2022-12-18T11:53:20;22.77;;;11.47;;
9150;SDS011;4610;50.006;7.490;2022-12-18T11:55:50;23.93;;;12.73;;
9150;SDS011;4610;50.006;7.490;2022-12-18T11:58:41;25.07;;;12.13;;
9150;SDS011;4610;50.006;7.490;2022-12-18T12:01:15;20.87;;;10.03;;
9150;SDS011;4610;50.006;7.490;2022-12-18T12:04:08;21.47;;;11.23;;
9150;SDS011;4610;50.006;7.490;2022-12-18T12:06:48;24.23;;;10.83;;
9150;SDS011;4610;50.006;7.490;2022-12-18T12:09:20;20.27;;;9.40;;
9150;SDS011;4610;50.006;7.490;2022-12-18T12:11:56;23.30;;;10.80;;
9150;SDS011;4610;50.006;7.490;2022-12-18T12:14:39;20.67;;;11.17;;
9150;SDS011;4610;50.006;7.490;2022-12-18T12:17:19;23.90;;;12.07;;
9150;SDS011;4610;50.006;7.490;2022-12-18T12:19:55;26.73;;;11.90;;
9150;SDS011;4610;50.006;7.490;2022-12-18T12:22:31;21.60;;;10.73;;
9150;SDS011;4610;50.006;7.490;2022-12-18T12:25:08;21.97;;;11.07;;
9150;SDS011;4610;50.006;7.490;2022-12-18T12:27:47;27.60;;;12.73;;
9150;SDS011;4610;50.006;7.490;2022-12-18T12:30:26;28.10;;;12.83;;
9150;SDS011;4610;50.006;7.490;2022-12-18T12:33:05;27.10;;;11.93;;
9150;SDS011;4610;50.006;7.490;2022-12-18T12:35:44;24.27;;;12.50;;
9150;SDS011;4610;50.006;7.490;2022-12-18T12:38:16;22.93;;;12.30;;
9150;SDS011;4610;50.006;7.490;2022-12-18T12:40:47;22.83;;;12.07;;
9150;SDS011;4610;50.006;7.490;2022-12-18T12:43:22;24.63;;;11.87;;
9150;SDS011;4610;50.006;7.490;2022-12-18T12:45:54;20.23;;;9.40;;
9150;SDS011;4610;50.006;7.490;2022-12-18T12:48:31;33.13;;;15.27;;
9150;SDS011;4610;50.006;7.490;2022-12-18T12:51:04;29.50;;;14.23;;
9150;SDS011;4610;50.006;7.490;2022-12-18T12:53:37;26.23;;;12.77;;
9150;SDS011;4610;50.006;7.490;2022-12-18T12:56:06;25.03;;;11.87;;
9150;SDS011;4610;50.006;7.490;2022-12-18T12:58:39;25.73;;;12.63;;
9150;SDS011;4610;50.006;7.490;2022-12-18T13:01:17;24.23;;;13.20;;
9150;SDS011;4610;50.006;7.490;2022-12-18T13:03:55;24.53;;;11.73;;
9150;SDS011;4610;50.006;7.490;2022-12-18T13:06:32;31.60;;;12.67;;
9150;SDS011;4610;50.006;7.490;2022-12-18T13:09:03;23.47;;;11.20;;
9150;SDS011;4610;50.006;7.490;2022-12-18T13:11:32;26.23;;;13.07;;
9150;SDS011;4610;50.006;7.490;2022-12-18T13:14:20;29.97;;;12.87;;
9150;SDS011;4610;50.006;7.490;2022-12-18T13:16:50;25.33;;;11.90;;
9150;SDS011;4610;50.006;7.490;2022-12-18T13:19:22;27.13;;;12.80;;
9150;SDS011;4610;50.006;7.490;2022-12-18T13:21:52;28.07;;;12.47;;
9150;SDS011;4610;50.006;7.490;2022-12-18T13:24:22;31.17;;;14.03;;
9150;SDS011;4610;50.006;7.490;2022-12-18T13:26:52;24.40;;;11.77;;
9150;SDS011;4610;50.006;7.490;2022-12-18T13:35:04;32.23;;;12.50;;
9150;SDS011;4610;50.006;7.490;2022-12-18T13:38:16;26.77;;;12.20;;
9150;SDS011;4610;50.006;7.490;2022-12-18T13:40:55;25.83;;;12.57;;
9150;SDS011;4610;50.006;7.490;2022-12-18T13:43:24;28.97;;;13.13;;
9150;SDS011;4610;50.006;7.490;2022-12-18T13:46:03;23.60;;;11.97;;
9150;SDS011;4610;50.006;7.490;2022-12-18T13:48:33;28.67;;;13.20;;
9150;SDS011;4610;50.006;7.490;2022-12-18T13:51:05;26.57;;;13.27;;
9150;SDS011;4610;50.006;7.490;2022-12-18T13:53:35;27.60;;;13.60;;
9150;SDS011;4610;50.006;7.490;2022-12-18T13:56:05;64.30;;;18.33;;
9150;SDS011;4610;50.006;7.490;2022-12-18T13:58:32;30.47;;;14.03;;
9150;SDS011;4610;50.006;7.490;2022-12-18T14:00:59;30.27;;;14.90;;
9150;SDS011;4610;50.006;7.490;2022-12-18T14:03:28;28.53;;;15.07;;
9150;SDS011;4610;50.006;7.490;2022-12-18T14:05:58;29.97;;;13.83;;
9150;SDS011;4610;50.006;7.490;2022-12-18T14:08:29;25.67;;;12.97;;
9150;SDS011;4610;50.006;7.490;2022-12-18T14:11:01;27.83;;;13.83;;
9150;SDS011;4610;50.006;7.490;2022-12-18T14:13:31;27.27;;;14.13;;
9150;SDS011;4610;50.006;7.490;2022-12-18T14:16:01;30.93;;;13.70;;
9150;SDS011;4610;50.006;7.490;2022-12-18T14:18:33;28.90;;;13.20;;
9150;SDS011;4610;50.006;7.490;2022-12-18T14:21:13;37.70;;;15.73;;
9150;SDS011;4610;50.006;7.490;2022-12-18T14:23:46;27.17;;;13.47;;
9150;SDS011;4610;50.006;7.490;2022-12-18T14:26:20;28.23;;;13.20;;
9150;SDS011;4610;50.006;7.490;2022-12-18T14:28:54;35.83;;;15.20;;
9150;SDS011;4610;50.006;7.490;2022-12-18T14:31:22;32.00;;;14.73;;
9150;SDS011;4610;50.006;7.490;2022-12-18T14:33:50;30.03;;;14.23;;
9150;SDS011;4610;50.006;7.490;2022-12-18T14:36:18;30.97;;;15.27;;
9150;SDS011;4610;50.006;7.490;2022-12-18T14:38:49;29.63;;;13.63;;
9150;SDS011;4610;50.006;7.490;2022-12-18T14:41:19;29.67;;;13.93;;
9150;SDS011;4610;50.006;7.490;2022-12-18T14:43:47;32.83;;;15.03;;
9150;SDS011;4610;50.006;7.490;2022-12-18T14:46:29;31.77;;;14.00;;
9150;SDS011;4610;50.006;7.490;2022-12-18T14:49:00;37.13;;;16.97;;
9150;SDS011;4610;50.006;7.490;2022-12-18T14:51:29;34.80;;;15.20;;
9150;SDS011;4610;50.006;7.490;2022-12-18T14:54:00;32.23;;;13.83;;
9150;SDS011;4610;50.006;7.490;2022-12-18T14:56:29;30.10;;;13.83;;
9150;SDS011;4610;50.006;7.490;2022-12-18T14:58:59;29.33;;;14.00;;
9150;SDS011;4610;50.006;7.490;2022-12-18T15:01:29;31.47;;;14.03;;
9150;SDS011;4610;50.006;7.490;2022-12-18T15:03:58;29.67;;;14.67;;
9150;SDS011;4610;50.006;7.490;2022-12-18T15:06:31;30.63;;;13.97;;
9150;SDS011;4610;50.006;7.490;2022-12-18T15:09:02;34.13;;;14.73;;
9150;SDS011;4610;50.006;7.490;2022-12-18T15:11:35;30.77;;;14.43;;
9150;SDS011;4610;50.006;7.490;2022-12-18T15:17:06;30.77;;;13.67;;
9150;SDS011;4610;50.006;7.490;2022-12-18T15:19:42;29.03;;;14.30;;
9150;SDS011;4610;50.006;7.490;2022-12-18T15:22:16;30.20;;;14.07;;
9150;SDS011;4610;50.006;7.490;2022-12-18T15:24:51;31.63;;;14.60;;